sensor_id;sensor_type;location;lat;lon;timestamp;temperature;humidity
4840;DHT22;2434;48.486;7.964;2022-11-20T00:01:12;8.90;74.10
4840;DHT22;2434;48.486;7.964;2022-11-20T00:03:41;8.90;73.80
4840;DHT22;2434;48.486;7.964;2022-11-20T00:06:11;8.80;75.10
4840;DHT22;2434;48.486;7.964;2022-11-20T00:08:40;8.80;74.70
4840;DHT22;2434;48.486;7.964;2022-11-20T00:11:10;8.80;74.60
4840;DHT22;2434;48.486;7.964;2022-11-20T00:13:44;8.80;75.10
4840;DHT22;2434;48.486;7.964;2022-11-20T00:16:16;8.70;75.10
4840;DHT22;2434;48.486;7.964;2022-11-20T00:18:44;8.80;74.80
4840;DHT22;2434;48.486;7.964;2022-11-20T00:21:14;8.80;74.50
4840;DHT22;2434;48.486;7.964;2022-11-20T00:23:43;8.80;74.80
4840;DHT22;2434;48.486;7.964;2022-11-20T00:26:13;8.90;74.40
4840;DHT22;2434;48.486;7.964;2022-11-20T00:28:44;8.90;74.30
4840;DHT22;2434;48.486;7.964;2022-11-20T00:31:17;8.80;74.90
4840;DHT22;2434;48.486;7.964;2022-11-20T00:33:46;8.90;74.70
4840;DHT22;2434;48.486;7.964;2022-11-20T00:36:16;8.90;74.80
4840;DHT22;2434;48.486;7.964;2022-11-20T00:38:45;8.90;75.20
4840;DHT22;2434;48.486;7.964;2022-11-20T00:41:15;8.70;75.90
4840;DHT22;2434;48.486;7.964;2022-11-20T00:43:45;8.80;75.70
4840;DHT22;2434;48.486;7.964;2022-11-20T00:46:14;8.80;75.70
4840;DHT22;2434;48.486;7.964;2022-11-20T00:48:44;8.80;75.80
4840;DHT22;2434;48.486;7.964;2022-11-20T00:51:14;8.90;75.70
4840;DHT22;2434;48.486;7.964;2022-11-20T00:53:43;8.90;75.20
4840;DHT22;2434;48.486;7.964;2022-11-20T00:56:13;8.80;75.20
4840;DHT22;2434;48.486;7.964;2022-11-20T00:58:45;8.80;75.60
4840;DHT22;2434;48.486;7.964;2022-11-20T01:01:15;8.80;75.20
4840;DHT22;2434;48.486;7.964;2022-11-20T01:03:45;8.80;75.50
4840;DHT22;2434;48.486;7.964;2022-11-20T01:06:15;8.70;75.80
4840;DHT22;2434;48.486;7.964;2022-11-20T01:08:45;8.70;76.00
4840;DHT22;2434;48.486;7.964;2022-11-20T01:11:15;8.60;76.20
4840;DHT22;2434;48.486;7.964;2022-11-20T01:13:46;8.60;76.50
4840;DHT22;2434;48.486;7.964;2022-11-20T01:16:17;8.60;76.40
4840;DHT22;2434;48.486;7.964;2022-11-20T01:18:47;8.60;76.50
4840;DHT22;2434;48.486;7.964;2022-11-20T01:21:17;8.50;76.90
4840;DHT22;2434;48.486;7.964;2022-11-20T01:23:46;8.50;77.20
4840;DHT22;2434;48.486;7.964;2022-11-20T01:26:17;8.50;76.90
4840;DHT22;2434;48.486;7.964;2022-11-20T01:28:47;8.50;77.00
4840;DHT22;2434;48.486;7.964;2022-11-20T01:31:18;8.50;77.10
4840;DHT22;2434;48.486;7.964;2022-11-20T01:33:48;8.40;77.00
4840;DHT22;2434;48.486;7.964;2022-11-20T01:36:19;8.40;77.30
4840;DHT22;2434;48.486;7.964;2022-11-20T01:38:50;8.40;77.60
4840;DHT22;2434;48.486;7.964;2022-11-20T01:41:19;8.40;77.30
4840;DHT22;2434;48.486;7.964;2022-11-20T01:44:03;8.40;77.10
4840;DHT22;2434;48.486;7.964;2022-11-20T01:46:32;8.30;76.90
4840;DHT22;2434;48.486;7.964;2022-11-20T01:49:05;8.30;77.60
4840;DHT22;2434;48.486;7.964;2022-11-20T01:51:40;8.30;76.50
4840;DHT22;2434;48.486;7.964;2022-11-20T01:54:13;8.20;76.50
4840;DHT22;2434;48.486;7.964;2022-11-20T01:56:44;8.20;76.70
4840;DHT22;2434;48.486;7.964;2022-11-20T01:59:16;8.20;76.60
4840;DHT22;2434;48.486;7.964;2022-11-20T02:01:46;8.20;76.10
4840;DHT22;2434;48.486;7.964;2022-11-20T02:04:15;8.10;76.50
4840;DHT22;2434;48.486;7.964;2022-11-20T02:06:47;8.10;76.50
4840;DHT22;2434;48.486;7.964;2022-11-20T02:09:16;8.10;76.00
4840;DHT22;2434;48.486;7.964;2022-11-20T02:11:45;8.10;75.70
4840;DHT22;2434;48.486;7.964;2022-11-20T02:14:15;8.10;75.30
4840;DHT22;2434;48.486;7.964;2022-11-20T02:16:45;8.10;75.10
4840;DHT22;2434;48.486;7.964;2022-11-20T02:19:20;8.10;75.20
4840;DHT22;2434;48.486;7.964;2022-11-20T02:21:56;8.10;74.70
4840;DHT22;2434;48.486;7.964;2022-11-20T02:24:29;8.10;74.50
4840;DHT22;2434;48.486;7.964;2022-11-20T02:27:01;8.10;74.50
4840;DHT22;2434;48.486;7.964;2022-11-20T02:29:33;8.10;73.90
4840;DHT22;2434;48.486;7.964;2022-11-20T02:32:04;8.00;74.10
4840;DHT22;2434;48.486;7.964;2022-11-20T02:34:32;8.00;74.00
4840;DHT22;2434;48.486;7.964;2022-11-20T02:37:01;8.00;74.50
4840;DHT22;2434;48.486;7.964;2022-11-20T02:39:31;8.00;74.10
4840;DHT22;2434;48.486;7.964;2022-11-20T02:42:01;8.10;74.20
4840;DHT22;2434;48.486;7.964;2022-11-20T02:44:29;8.10;73.80
4840;DHT22;2434;48.486;7.964;2022-11-20T02:46:58;8.10;74.40
4840;DHT22;2434;48.486;7.964;2022-11-20T02:49:26;8.10;73.50
4840;DHT22;2434;48.486;7.964;2022-11-20T02:51:55;8.10;73.30
4840;DHT22;2434;48.486;7.964;2022-11-20T02:54:23;8.10;73.60
4840;DHT22;2434;48.486;7.964;2022-11-20T02:56:53;8.00;72.60
4840;DHT22;2434;48.486;7.964;2022-11-20T02:59:21;8.00;73.10
4840;DHT22;2434;48.486;7.964;2022-11-20T03:01:50;8.00;73.90
4840;DHT22;2434;48.486;7.964;2022-11-20T03:04:18;8.00;74.40
4840;DHT22;2434;48.486;7.964;2022-11-20T03:06:46;8.00;73.00
4840;DHT22;2434;48.486;7.964;2022-11-20T03:09:15;8.00;73.20
4840;DHT22;2434;48.486;7.964;2022-11-20T03:11:44;8.00;73.00
4840;DHT22;2434;48.486;7.964;2022-11-20T03:14:13;8.10;72.80
4840;DHT22;2434;48.486;7.964;2022-11-20T03:16:42;8.10;72.90
4840;DHT22;2434;48.486;7.964;2022-11-20T03:19:11;8.10;72.60
4840;DHT22;2434;48.486;7.964;2022-11-20T03:21:39;8.10;73.40
4840;DHT22;2434;48.486;7.964;2022-11-20T03:24:07;8.20;72.70
4840;DHT22;2434;48.486;7.964;2022-11-20T03:26:36;8.10;72.60
4840;DHT22;2434;48.486;7.964;2022-11-20T03:29:04;8.10;73.20
4840;DHT22;2434;48.486;7.964;2022-11-20T03:31:36;8.00;73.40
4840;DHT22;2434;48.486;7.964;2022-11-20T03:34:08;8.10;73.30
4840;DHT22;2434;48.486;7.964;2022-11-20T03:36:37;8.20;72.50
4840;DHT22;2434;48.486;7.964;2022-11-20T03:39:06;8.20;72.40
4840;DHT22;2434;48.486;7.964;2022-11-20T03:41:37;8.20;72.40
4840;DHT22;2434;48.486;7.964;2022-11-20T03:44:07;8.20;72.50
4840;DHT22;2434;48.486;7.964;2022-11-20T03:46:38;8.10;72.50
4840;DHT22;2434;48.486;7.964;2022-11-20T03:49:06;8.20;72.90
4840;DHT22;2434;48.486;7.964;2022-11-20T03:51:36;8.20;72.70
4840;DHT22;2434;48.486;7.964;2022-11-20T03:54:05;8.30;73.30
4840;DHT22;2434;48.486;7.964;2022-11-20T03:56:36;8.30;72.30
4840;DHT22;2434;48.486;7.964;2022-11-20T03:59:05;8.30;72.00
4840;DHT22;2434;48.486;7.964;2022-11-20T04:01:35;8.30;72.00
4840;DHT22;2434;48.486;7.964;2022-11-20T04:04:06;8.20;72.50
4840;DHT22;2434;48.486;7.964;2022-11-20T04:06:36;8.10;72.80
4840;DHT22;2434;48.486;7.964;2022-11-20T04:09:06;8.00;72.90
4840;DHT22;2434;48.486;7.964;2022-11-20T04:11:36;8.00;74.10
4840;DHT22;2434;48.486;7.964;2022-11-20T04:14:06;8.00;73.90
4840;DHT22;2434;48.486;7.964;2022-11-20T04:16:36;8.00;74.20
4840;DHT22;2434;48.486;7.964;2022-11-20T04:19:09;8.00;74.70
4840;DHT22;2434;48.486;7.964;2022-11-20T04:21:38;8.00;74.70
4840;DHT22;2434;48.486;7.964;2022-11-20T04:24:07;8.00;74.70
4840;DHT22;2434;48.486;7.964;2022-11-20T04:26:35;8.00;75.10
4840;DHT22;2434;48.486;7.964;2022-11-20T04:29:04;8.00;75.30
4840;DHT22;2434;48.486;7.964;2022-11-20T04:31:33;8.00;75.20
4840;DHT22;2434;48.486;7.964;2022-11-20T04:34:04;8.00;75.70
4840;DHT22;2434;48.486;7.964;2022-11-20T04:36:34;8.00;76.00
4840;DHT22;2434;48.486;7.964;2022-11-20T04:39:04;8.00;75.80
4840;DHT22;2434;48.486;7.964;2022-11-20T04:41:34;7.90;76.00
4840;DHT22;2434;48.486;7.964;2022-11-20T04:44:04;7.90;76.40
4840;DHT22;2434;48.486;7.964;2022-11-20T04:46:35;7.90;77.40
4840;DHT22;2434;48.486;7.964;2022-11-20T04:49:04;7.80;77.70
4840;DHT22;2434;48.486;7.964;2022-11-20T04:51:34;7.80;78.00
4840;DHT22;2434;48.486;7.964;2022-11-20T04:54:03;7.80;78.90
4840;DHT22;2434;48.486;7.964;2022-11-20T04:56:31;7.80;78.70
4840;DHT22;2434;48.486;7.964;2022-11-20T04:59:00;7.80;78.80
4840;DHT22;2434;48.486;7.964;2022-11-20T05:01:29;7.80;79.60
4840;DHT22;2434;48.486;7.964;2022-11-20T05:03:59;7.80;79.40
4840;DHT22;2434;48.486;7.964;2022-11-20T05:06:27;7.80;79.40
4840;DHT22;2434;48.486;7.964;2022-11-20T05:08:57;7.80;79.60
4840;DHT22;2434;48.486;7.964;2022-11-20T05:11:26;7.80;79.60
4840;DHT22;2434;48.486;7.964;2022-11-20T05:13:58;7.80;79.40
4840;DHT22;2434;48.486;7.964;2022-11-20T05:16:26;7.80;80.20
4840;DHT22;2434;48.486;7.964;2022-11-20T05:18:55;7.70;80.00
4840;DHT22;2434;48.486;7.964;2022-11-20T05:21:23;7.80;79.90
4840;DHT22;2434;48.486;7.964;2022-11-20T05:23:51;7.80;79.90
4840;DHT22;2434;48.486;7.964;2022-11-20T05:26:22;7.80;80.10
4840;DHT22;2434;48.486;7.964;2022-11-20T05:28:50;7.70;80.70
4840;DHT22;2434;48.486;7.964;2022-11-20T05:31:20;7.70;81.30
4840;DHT22;2434;48.486;7.964;2022-11-20T05:33:54;7.70;80.90
4840;DHT22;2434;48.486;7.964;2022-11-20T05:36:23;7.70;81.00
4840;DHT22;2434;48.486;7.964;2022-11-20T05:38:51;7.70;80.90
4840;DHT22;2434;48.486;7.964;2022-11-20T05:41:28;7.70;80.70
4840;DHT22;2434;48.486;7.964;2022-11-20T05:43:57;7.70;80.60
4840;DHT22;2434;48.486;7.964;2022-11-20T05:46:27;7.70;81.10
4840;DHT22;2434;48.486;7.964;2022-11-20T05:48:56;7.80;79.70
4840;DHT22;2434;48.486;7.964;2022-11-20T05:51:25;7.70;79.90
4840;DHT22;2434;48.486;7.964;2022-11-20T05:53:53;7.70;80.20
4840;DHT22;2434;48.486;7.964;2022-11-20T05:56:22;7.70;80.20
4840;DHT22;2434;48.486;7.964;2022-11-20T05:58:51;7.80;79.80
4840;DHT22;2434;48.486;7.964;2022-11-20T06:01:21;7.80;79.50
4840;DHT22;2434;48.486;7.964;2022-11-20T06:03:50;7.70;80.10
4840;DHT22;2434;48.486;7.964;2022-11-20T06:06:19;7.80;79.80
4840;DHT22;2434;48.486;7.964;2022-11-20T06:08:48;7.70;80.20
4840;DHT22;2434;48.486;7.964;2022-11-20T06:11:16;7.70;80.80
4840;DHT22;2434;48.486;7.964;2022-11-20T06:13:46;7.70;80.30
4840;DHT22;2434;48.486;7.964;2022-11-20T06:16:18;7.70;80.20
4840;DHT22;2434;48.486;7.964;2022-11-20T06:18:48;7.70;80.70
4840;DHT22;2434;48.486;7.964;2022-11-20T06:21:18;7.70;80.60
4840;DHT22;2434;48.486;7.964;2022-11-20T06:23:48;7.70;80.50
4840;DHT22;2434;48.486;7.964;2022-11-20T06:26:18;7.70;80.50
4840;DHT22;2434;48.486;7.964;2022-11-20T06:28:47;7.70;80.10
4840;DHT22;2434;48.486;7.964;2022-11-20T06:31:18;7.70;79.90
4840;DHT22;2434;48.486;7.964;2022-11-20T06:33:48;7.70;80.10
4840;DHT22;2434;48.486;7.964;2022-11-20T06:36:18;7.70;80.00
4840;DHT22;2434;48.486;7.964;2022-11-20T06:38:47;7.70;80.10
4840;DHT22;2434;48.486;7.964;2022-11-20T06:41:17;7.70;80.10
4840;DHT22;2434;48.486;7.964;2022-11-20T06:43:46;7.80;80.50
4840;DHT22;2434;48.486;7.964;2022-11-20T06:46:16;7.70;79.80
4840;DHT22;2434;48.486;7.964;2022-11-20T06:48:46;7.80;79.60
4840;DHT22;2434;48.486;7.964;2022-11-20T06:51:16;7.80;79.40
4840;DHT22;2434;48.486;7.964;2022-11-20T06:53:44;7.70;80.40
4840;DHT22;2434;48.486;7.964;2022-11-20T06:56:13;7.60;79.90
4840;DHT22;2434;48.486;7.964;2022-11-20T06:58:41;7.60;80.10
4840;DHT22;2434;48.486;7.964;2022-11-20T07:01:11;7.70;80.10
4840;DHT22;2434;48.486;7.964;2022-11-20T07:03:41;7.70;80.10
4840;DHT22;2434;48.486;7.964;2022-11-20T07:06:11;7.70;80.00
4840;DHT22;2434;48.486;7.964;2022-11-20T07:08:39;7.70;79.80
4840;DHT22;2434;48.486;7.964;2022-11-20T07:11:11;7.70;79.60
4840;DHT22;2434;48.486;7.964;2022-11-20T07:13:40;7.70;79.30
4840;DHT22;2434;48.486;7.964;2022-11-20T07:16:08;7.80;79.80
4840;DHT22;2434;48.486;7.964;2022-11-20T07:18:36;7.70;80.00
4840;DHT22;2434;48.486;7.964;2022-11-20T07:21:08;7.60;80.30
4840;DHT22;2434;48.486;7.964;2022-11-20T07:23:37;7.60;80.70
4840;DHT22;2434;48.486;7.964;2022-11-20T07:26:07;7.60;80.50
4840;DHT22;2434;48.486;7.964;2022-11-20T07:28:37;7.60;80.70
4840;DHT22;2434;48.486;7.964;2022-11-20T07:31:06;7.60;80.60
4840;DHT22;2434;48.486;7.964;2022-11-20T07:33:36;7.70;80.70
4840;DHT22;2434;48.486;7.964;2022-11-20T07:36:07;7.70;81.10
4840;DHT22;2434;48.486;7.964;2022-11-20T07:38:36;7.70;81.60
4840;DHT22;2434;48.486;7.964;2022-11-20T07:41:04;7.60;81.70
4840;DHT22;2434;48.486;7.964;2022-11-20T07:43:33;7.70;81.50
4840;DHT22;2434;48.486;7.964;2022-11-20T07:46:07;7.70;81.50
4840;DHT22;2434;48.486;7.964;2022-11-20T07:48:35;7.70;82.30
4840;DHT22;2434;48.486;7.964;2022-11-20T07:51:03;7.70;82.50
4840;DHT22;2434;48.486;7.964;2022-11-20T07:53:33;7.60;82.60
4840;DHT22;2434;48.486;7.964;2022-11-20T07:56:01;7.60;83.30
4840;DHT22;2434;48.486;7.964;2022-11-20T07:58:30;7.60;84.20
4840;DHT22;2434;48.486;7.964;2022-11-20T08:01:02;7.60;83.60
4840;DHT22;2434;48.486;7.964;2022-11-20T08:03:31;7.60;84.00
4840;DHT22;2434;48.486;7.964;2022-11-20T08:05:59;7.60;83.30
4840;DHT22;2434;48.486;7.964;2022-11-20T08:08:28;7.70;83.90
4840;DHT22;2434;48.486;7.964;2022-11-20T08:11:01;7.70;83.00
4840;DHT22;2434;48.486;7.964;2022-11-20T08:13:47;7.80;83.20
4840;DHT22;2434;48.486;7.964;2022-11-20T08:16:32;7.70;83.30
4840;DHT22;2434;48.486;7.964;2022-11-20T08:19:00;7.70;84.10
4840;DHT22;2434;48.486;7.964;2022-11-20T08:21:30;7.70;83.90
4840;DHT22;2434;48.486;7.964;2022-11-20T08:24:05;7.60;84.30
4840;DHT22;2434;48.486;7.964;2022-11-20T08:26:35;7.70;84.70
4840;DHT22;2434;48.486;7.964;2022-11-20T08:29:04;7.70;84.40
4840;DHT22;2434;48.486;7.964;2022-11-20T08:31:32;7.70;84.50
4840;DHT22;2434;48.486;7.964;2022-11-20T08:34:01;7.70;84.40
4840;DHT22;2434;48.486;7.964;2022-11-20T08:36:36;7.70;84.80
4840;DHT22;2434;48.486;7.964;2022-11-20T08:39:04;7.80;84.20
4840;DHT22;2434;48.486;7.964;2022-11-20T08:41:34;7.70;85.10
4840;DHT22;2434;48.486;7.964;2022-11-20T08:44:05;7.70;84.80
4840;DHT22;2434;48.486;7.964;2022-11-20T08:46:35;7.70;84.20
4840;DHT22;2434;48.486;7.964;2022-11-20T08:49:04;7.70;84.20
4840;DHT22;2434;48.486;7.964;2022-11-20T08:51:32;7.70;84.90
4840;DHT22;2434;48.486;7.964;2022-11-20T08:54:01;7.80;84.40
4840;DHT22;2434;48.486;7.964;2022-11-20T08:56:31;7.80;84.20
4840;DHT22;2434;48.486;7.964;2022-11-20T08:59:01;7.80;84.70
4840;DHT22;2434;48.486;7.964;2022-11-20T09:01:49;7.80;85.60
4840;DHT22;2434;48.486;7.964;2022-11-20T09:04:19;7.80;84.70
4840;DHT22;2434;48.486;7.964;2022-11-20T09:06:47;7.70;84.80
4840;DHT22;2434;48.486;7.964;2022-11-20T09:09:18;7.70;84.50
4840;DHT22;2434;48.486;7.964;2022-11-20T09:11:47;7.70;85.10
4840;DHT22;2434;48.486;7.964;2022-11-20T09:14:18;7.80;84.40
4840;DHT22;2434;48.486;7.964;2022-11-20T09:16:46;7.70;85.10
4840;DHT22;2434;48.486;7.964;2022-11-20T09:19:14;7.70;85.20
4840;DHT22;2434;48.486;7.964;2022-11-20T09:22:03;7.70;85.40
4840;DHT22;2434;48.486;7.964;2022-11-20T09:24:31;7.70;85.50
4840;DHT22;2434;48.486;7.964;2022-11-20T09:27:02;7.70;85.20
4840;DHT22;2434;48.486;7.964;2022-11-20T09:29:31;7.80;85.30
4840;DHT22;2434;48.486;7.964;2022-11-20T09:32:00;7.70;85.90
4840;DHT22;2434;48.486;7.964;2022-11-20T09:34:28;7.80;85.30
4840;DHT22;2434;48.486;7.964;2022-11-20T09:36:56;7.80;85.50
4840;DHT22;2434;48.486;7.964;2022-11-20T09:39:30;7.90;85.10
4840;DHT22;2434;48.486;7.964;2022-11-20T09:42:17;7.90;85.20
4840;DHT22;2434;48.486;7.964;2022-11-20T09:44:57;7.90;84.90
4840;DHT22;2434;48.486;7.964;2022-11-20T09:47:40;7.90;84.70
4840;DHT22;2434;48.486;7.964;2022-11-20T09:50:23;8.00;84.10
4840;DHT22;2434;48.486;7.964;2022-11-20T09:53:04;8.00;84.10
4840;DHT22;2434;48.486;7.964;2022-11-20T09:55:36;7.90;84.10
4840;DHT22;2434;48.486;7.964;2022-11-20T09:58:06;8.00;83.90
4840;DHT22;2434;48.486;7.964;2022-11-20T10:00:37;8.00;84.80
4840;DHT22;2434;48.486;7.964;2022-11-20T10:03:13;8.00;84.30
4840;DHT22;2434;48.486;7.964;2022-11-20T10:05:45;8.10;84.20
4840;DHT22;2434;48.486;7.964;2022-11-20T10:08:18;8.10;84.30
4840;DHT22;2434;48.486;7.964;2022-11-20T10:10:52;8.10;84.10
4840;DHT22;2434;48.486;7.964;2022-11-20T10:13:30;8.10;83.80
4840;DHT22;2434;48.486;7.964;2022-11-20T10:16:15;8.10;83.50
4840;DHT22;2434;48.486;7.964;2022-11-20T10:18:55;8.10;83.50
4840;DHT22;2434;48.486;7.964;2022-11-20T10:21:37;8.20;83.50
4840;DHT22;2434;48.486;7.964;2022-11-20T10:24:29;8.20;82.40
4840;DHT22;2434;48.486;7.964;2022-11-20T10:27:14;8.20;82.20
4840;DHT22;2434;48.486;7.964;2022-11-20T10:29:47;8.30;82.10
4840;DHT22;2434;48.486;7.964;2022-11-20T10:32:20;8.30;82.10
4840;DHT22;2434;48.486;7.964;2022-11-20T10:34:55;8.30;80.80
4840;DHT22;2434;48.486;7.964;2022-11-20T10:37:26;8.20;81.10
4840;DHT22;2434;48.486;7.964;2022-11-20T10:39:58;8.30;80.90
4840;DHT22;2434;48.486;7.964;2022-11-20T10:42:32;8.30;81.10
4840;DHT22;2434;48.486;7.964;2022-11-20T10:45:13;8.40;81.60
4840;DHT22;2434;48.486;7.964;2022-11-20T10:47:45;8.40;81.00
4840;DHT22;2434;48.486;7.964;2022-11-20T10:50:16;8.40;81.70
4840;DHT22;2434;48.486;7.964;2022-11-20T10:52:55;8.40;82.40
4840;DHT22;2434;48.486;7.964;2022-11-20T10:55:30;8.50;82.30
4840;DHT22;2434;48.486;7.964;2022-11-20T10:58:04;8.50;82.40
4840;DHT22;2434;48.486;7.964;2022-11-20T11:00:36;8.50;82.00
4840;DHT22;2434;48.486;7.964;2022-11-20T11:03:20;8.40;80.50
4840;DHT22;2434;48.486;7.964;2022-11-20T11:05:51;8.40;81.00
4840;DHT22;2434;48.486;7.964;2022-11-20T11:08:23;8.40;80.10
4840;DHT22;2434;48.486;7.964;2022-11-20T11:10:56;8.60;81.20
4840;DHT22;2434;48.486;7.964;2022-11-20T11:13:27;8.80;81.00
4840;DHT22;2434;48.486;7.964;2022-11-20T11:15:56;8.90;78.70
4840;DHT22;2434;48.486;7.964;2022-11-20T11:18:28;9.10;76.50
4840;DHT22;2434;48.486;7.964;2022-11-20T11:20:57;9.10;74.60
4840;DHT22;2434;48.486;7.964;2022-11-20T11:23:33;9.20;72.10
4840;DHT22;2434;48.486;7.964;2022-11-20T11:26:04;9.10;72.30
4840;DHT22;2434;48.486;7.964;2022-11-20T11:28:33;9.20;73.80
4840;DHT22;2434;48.486;7.964;2022-11-20T11:31:01;9.40;69.80
4840;DHT22;2434;48.486;7.964;2022-11-20T11:33:32;9.40;70.10
4840;DHT22;2434;48.486;7.964;2022-11-20T11:36:03;9.60;69.70
4840;DHT22;2434;48.486;7.964;2022-11-20T11:38:36;9.70;66.30
4840;DHT22;2434;48.486;7.964;2022-11-20T11:41:06;9.80;62.60
4840;DHT22;2434;48.486;7.964;2022-11-20T11:43:36;9.80;58.90
4840;DHT22;2434;48.486;7.964;2022-11-20T11:46:31;9.70;59.20
4840;DHT22;2434;48.486;7.964;2022-11-20T11:49:15;9.60;57.30
4840;DHT22;2434;48.486;7.964;2022-11-20T11:51:54;9.60;58.10
4840;DHT22;2434;48.486;7.964;2022-11-20T11:54:28;9.60;58.20
4840;DHT22;2434;48.486;7.964;2022-11-20T11:57:00;9.60;58.70
4840;DHT22;2434;48.486;7.964;2022-11-20T11:59:44;9.60;58.80
4840;DHT22;2434;48.486;7.964;2022-11-20T12:02:27;9.50;57.20
4840;DHT22;2434;48.486;7.964;2022-11-20T12:05:02;9.50;57.30
4840;DHT22;2434;48.486;7.964;2022-11-20T12:07:39;9.50;60.00
4840;DHT22;2434;48.486;7.964;2022-11-20T12:10:19;9.40;58.40
4840;DHT22;2434;48.486;7.964;2022-11-20T12:12:51;9.20;59.00
4840;DHT22;2434;48.486;7.964;2022-11-20T12:15:30;9.30;60.20
4840;DHT22;2434;48.486;7.964;2022-11-20T12:18:00;9.20;59.00
4840;DHT22;2434;48.486;7.964;2022-11-20T12:20:40;9.20;59.00
4840;DHT22;2434;48.486;7.964;2022-11-20T12:23:17;9.20;57.50
4840;DHT22;2434;48.486;7.964;2022-11-20T12:25:48;9.20;57.90
4840;DHT22;2434;48.486;7.964;2022-11-20T12:28:39;9.20;56.60
4840;DHT22;2434;48.486;7.964;2022-11-20T12:31:36;9.20;58.70
4840;DHT22;2434;48.486;7.964;2022-11-20T12:34:22;9.30;57.20
4840;DHT22;2434;48.486;7.964;2022-11-20T12:36:59;9.30;56.80
4840;DHT22;2434;48.486;7.964;2022-11-20T12:39:34;9.30;55.20
4840;DHT22;2434;48.486;7.964;2022-11-20T12:42:17;9.30;55.70
4840;DHT22;2434;48.486;7.964;2022-11-20T12:45:49;9.30;57.10
4840;DHT22;2434;48.486;7.964;2022-11-20T12:48:35;9.40;56.40
4840;DHT22;2434;48.486;7.964;2022-11-20T12:51:21;9.50;55.30
4840;DHT22;2434;48.486;7.964;2022-11-20T12:54:06;9.60;56.10
4840;DHT22;2434;48.486;7.964;2022-11-20T12:56:43;9.60;57.60
4840;DHT22;2434;48.486;7.964;2022-11-20T12:59:27;9.70;55.90
4840;DHT22;2434;48.486;7.964;2022-11-20T13:02:03;9.60;56.40
4840;DHT22;2434;48.486;7.964;2022-11-20T13:04:52;9.60;55.00
4840;DHT22;2434;48.486;7.964;2022-11-20T13:07:26;9.60;55.20
4840;DHT22;2434;48.486;7.964;2022-11-20T13:09:57;9.60;55.10
4840;DHT22;2434;48.486;7.964;2022-11-20T13:12:30;9.50;53.70
4840;DHT22;2434;48.486;7.964;2022-11-20T13:15:07;9.60;55.10
4840;DHT22;2434;48.486;7.964;2022-11-20T13:17:42;9.60;54.70
4840;DHT22;2434;48.486;7.964;2022-11-20T13:20:15;9.60;57.30
4840;DHT22;2434;48.486;7.964;2022-11-20T13:22:45;9.80;57.30
4840;DHT22;2434;48.486;7.964;2022-11-20T13:25:26;9.90;56.10
4840;DHT22;2434;48.486;7.964;2022-11-20T13:27:56;10.10;54.80
4840;DHT22;2434;48.486;7.964;2022-11-20T13:30:26;10.20;53.80
4840;DHT22;2434;48.486;7.964;2022-11-20T13:32:56;10.00;52.10
4840;DHT22;2434;48.486;7.964;2022-11-20T13:35:29;9.70;52.10
4840;DHT22;2434;48.486;7.964;2022-11-20T13:38:04;9.70;52.30
4840;DHT22;2434;48.486;7.964;2022-11-20T13:40:36;9.60;53.00
4840;DHT22;2434;48.486;7.964;2022-11-20T13:43:11;9.60;53.20
4840;DHT22;2434;48.486;7.964;2022-11-20T13:45:55;9.70;53.70
4840;DHT22;2434;48.486;7.964;2022-11-20T13:48:26;9.80;56.00
4840;DHT22;2434;48.486;7.964;2022-11-20T13:51:12;9.90;53.80
4840;DHT22;2434;48.486;7.964;2022-11-20T13:56:54;10.30;52.70
4840;DHT22;2434;48.486;7.964;2022-11-20T13:59:38;10.30;52.30
4840;DHT22;2434;48.486;7.964;2022-11-20T14:02:11;10.30;50.90
4840;DHT22;2434;48.486;7.964;2022-11-20T14:04:45;10.30;51.10
4840;DHT22;2434;48.486;7.964;2022-11-20T14:07:14;10.10;50.20
4840;DHT22;2434;48.486;7.964;2022-11-20T14:09:50;10.20;50.40
4840;DHT22;2434;48.486;7.964;2022-11-20T14:12:27;10.20;50.00
4840;DHT22;2434;48.486;7.964;2022-11-20T14:14:56;10.20;50.80
4840;DHT22;2434;48.486;7.964;2022-11-20T14:17:30;10.20;50.90
4840;DHT22;2434;48.486;7.964;2022-11-20T14:20:00;10.30;50.70
4840;DHT22;2434;48.486;7.964;2022-11-20T14:22:29;10.20;50.20
4840;DHT22;2434;48.486;7.964;2022-11-20T14:25:05;10.20;51.10
4840;DHT22;2434;48.486;7.964;2022-11-20T14:27:36;10.30;50.70
4840;DHT22;2434;48.486;7.964;2022-11-20T14:30:11;10.30;51.80
4840;DHT22;2434;48.486;7.964;2022-11-20T14:32:41;10.40;51.70
4840;DHT22;2434;48.486;7.964;2022-11-20T14:35:14;10.30;52.40
4840;DHT22;2434;48.486;7.964;2022-11-20T14:37:46;10.40;51.90
4840;DHT22;2434;48.486;7.964;2022-11-20T14:40:33;10.30;50.70
4840;DHT22;2434;48.486;7.964;2022-11-20T14:43:17;10.30;52.60
4840;DHT22;2434;48.486;7.964;2022-11-20T14:45:50;10.30;51.60
4840;DHT22;2434;48.486;7.964;2022-11-20T14:48:23;10.30;52.70
4840;DHT22;2434;48.486;7.964;2022-11-20T14:50:52;10.20;51.90
4840;DHT22;2434;48.486;7.964;2022-11-20T14:53:23;10.20;52.50
4840;DHT22;2434;48.486;7.964;2022-11-20T14:55:56;10.10;52.60
4840;DHT22;2434;48.486;7.964;2022-11-20T14:58:28;10.10;51.90
4840;DHT22;2434;48.486;7.964;2022-11-20T15:01:00;9.90;52.60
4840;DHT22;2434;48.486;7.964;2022-11-20T15:03:32;10.00;53.40
4840;DHT22;2434;48.486;7.964;2022-11-20T15:06:01;9.90;52.10
4840;DHT22;2434;48.486;7.964;2022-11-20T15:08:29;9.80;52.20
4840;DHT22;2434;48.486;7.964;2022-11-20T15:10:58;9.90;52.60
4840;DHT22;2434;48.486;7.964;2022-11-20T15:13:30;9.90;52.20
4840;DHT22;2434;48.486;7.964;2022-11-20T15:16:00;9.90;51.80
4840;DHT22;2434;48.486;7.964;2022-11-20T15:18:32;9.90;52.10
4840;DHT22;2434;48.486;7.964;2022-11-20T15:21:03;9.90;53.70
4840;DHT22;2434;48.486;7.964;2022-11-20T15:23:32;9.80;53.40
4840;DHT22;2434;48.486;7.964;2022-11-20T15:26:00;9.80;53.40
4840;DHT22;2434;48.486;7.964;2022-11-20T15:28:32;9.70;53.80
4840;DHT22;2434;48.486;7.964;2022-11-20T15:31:01;9.60;55.40
4840;DHT22;2434;48.486;7.964;2022-11-20T15:33:30;9.60;55.70
4840;DHT22;2434;48.486;7.964;2022-11-20T15:35:59;9.60;56.00
4840;DHT22;2434;48.486;7.964;2022-11-20T15:38:27;9.60;56.70
4840;DHT22;2434;48.486;7.964;2022-11-20T15:40:55;9.60;57.10
4840;DHT22;2434;48.486;7.964;2022-11-20T15:43:24;9.50;57.20
4840;DHT22;2434;48.486;7.964;2022-11-20T15:45:55;9.50;57.20
4840;DHT22;2434;48.486;7.964;2022-11-20T15:48:27;9.40;57.20
4840;DHT22;2434;48.486;7.964;2022-11-20T15:50:59;9.30;58.30
4840;DHT22;2434;48.486;7.964;2022-11-20T15:53:29;9.30;58.50
4840;DHT22;2434;48.486;7.964;2022-11-20T15:55:57;9.30;57.60
4840;DHT22;2434;48.486;7.964;2022-11-20T15:58:25;9.30;57.80
4840;DHT22;2434;48.486;7.964;2022-11-20T16:00:56;9.30;57.70
4840;DHT22;2434;48.486;7.964;2022-11-20T16:03:24;9.30;57.30
4840;DHT22;2434;48.486;7.964;2022-11-20T16:05:52;9.20;57.90
4840;DHT22;2434;48.486;7.964;2022-11-20T16:08:21;9.20;57.90
4840;DHT22;2434;48.486;7.964;2022-11-20T16:10:49;9.20;57.40
4840;DHT22;2434;48.486;7.964;2022-11-20T16:13:17;9.20;57.50
4840;DHT22;2434;48.486;7.964;2022-11-20T16:16:07;9.20;58.70
4840;DHT22;2434;48.486;7.964;2022-11-20T16:18:39;9.20;57.90
4840;DHT22;2434;48.486;7.964;2022-11-20T16:21:11;9.20;58.20
4840;DHT22;2434;48.486;7.964;2022-11-20T16:23:40;9.10;58.20
4840;DHT22;2434;48.486;7.964;2022-11-20T16:26:10;9.10;58.30
4840;DHT22;2434;48.486;7.964;2022-11-20T16:28:39;9.00;58.20
4840;DHT22;2434;48.486;7.964;2022-11-20T16:31:10;9.00;58.80
4840;DHT22;2434;48.486;7.964;2022-11-20T16:33:38;9.10;58.60
4840;DHT22;2434;48.486;7.964;2022-11-20T16:36:08;9.00;58.70
4840;DHT22;2434;48.486;7.964;2022-11-20T16:38:37;8.90;59.10
4840;DHT22;2434;48.486;7.964;2022-11-20T16:41:06;8.90;59.90
4840;DHT22;2434;48.486;7.964;2022-11-20T16:43:47;9.00;59.30
4840;DHT22;2434;48.486;7.964;2022-11-20T16:46:19;8.90;59.70
4840;DHT22;2434;48.486;7.964;2022-11-20T16:48:52;9.00;59.90
4840;DHT22;2434;48.486;7.964;2022-11-20T16:51:21;8.90;59.80